Aracaju, Brazil

6:58 PM BRST on December 18, 2014 (GMT -0200)
Santa Maria | Change Station
CLOSE
Current Station
Airport
Location: Aracaju Airport,
Elevation: 30 ft
Nearby Weather Stations

Elev 30 ft 10.98 °S, 37.07 °W | Updated -82 second ago

Mostly Cloudy
Mostly Cloudy
79 °F
Feels Like 79 °F
N
10
Wind Variable Wind from East

Today
High -- | Low -- °F
--% Chance of Precip.
Yesterday
High -- | Low -- °F
Precip. -- in
6:01 AM 6:47 PM
Waning Crescent, 12% visible
Pressure 29.86 in
Visibility 6.2 miles
Clouds Scattered Clouds 1500 ft
Mostly Cloudy 10000 ft
Dew Point 73 °F
Humidity 83%
Rainfall 0.00 in
Snow Depth Not available.
UV 0 out of 12
Pollen Not available.
Air Quality Not available.
Flu Activity Not available.
METAR SBAR 182100Z 08009KT 9999 SCT015 BKN100 26/23 Q1011

More Conditions Fewer Conditions

Pressure 29.86 in
Visibility 6.2 miles
Clouds Scattered Clouds 1500 ft
Mostly Cloudy 10000 ft
Dew Point 73 °F
Humidity 83%
Rainfall 0.00 in
Snow Depth Not available.
UV 0 out of 12
Pollen Not available.
Air Quality Not available.
Flu Activity Not available.
METAR SBAR 182100Z 08009KT 9999 SCT015 BKN100 26/23 Q1011

More Conditions Fewer Conditions

10-Day Weather Forecast

Almanac

Astronomy

Dec. 18, 2014 Rise Set
Actual Time
Civil Twilight
Nautical Twilight
Astronomical Twilight
Moon
Length of Visible Light
Length of Day
Tomorrow will be .
, % of the Moon is Illuminated

Today's Extremes

Country Highs Country Lows

Community

WunderPhotos

Upload Photos

1,778,993 photos uploaded!

WunderBlogs® & News

Nearby

Air Quality

  Air Quality AQ Index Pollutant
Not available.

Snow Depth

Station Depth Elevation

Earthquake Activity

City Distance Mag. Time & Date
Minimum magnitude displayed is 2.5.

Coastal Water Temperatures

Place Temperature

Nearby Weather Stations